createdAt,value
2018-11-25T00:01:38.886Z,96847.38
2018-11-25T00:04:09.951Z,96851.34
2018-11-25T00:06:40.874Z,96850.53
2018-11-25T00:09:11.871Z,96845.87
2018-11-25T00:11:42.766Z,96841.33
2018-11-25T00:14:13.898Z,96835.38
2018-11-25T00:16:44.773Z,96835.92
2018-11-25T00:19:15.737Z,96835.02
2018-11-25T00:21:47.340Z,96823.88
2018-11-25T00:24:18.336Z,96823.00
2018-11-25T00:26:49.355Z,96819.32
2018-11-25T00:29:20.501Z,96817.55
2018-11-25T00:31:51.550Z,96812.41
2018-11-25T00:34:22.527Z,96807.47
2018-11-25T00:36:53.551Z,96808.19
2018-11-25T00:39:24.498Z,96814.19
2018-11-25T00:41:55.415Z,96816.48
2018-11-25T00:44:26.249Z,96809.07
2018-11-25T00:46:57.298Z,96810.86
2018-11-25T00:49:28.272Z,96808.94
2018-11-25T00:51:59.309Z,96812.00
2018-11-25T00:54:30.237Z,96810.32
2018-11-25T00:57:01.293Z,96818.94
2018-11-25T00:59:32.308Z,96808.03
2018-11-25T01:02:03.462Z,96816.31
2018-11-25T01:04:34.728Z,96818.03
2018-11-25T01:07:06.179Z,96820.30
2018-11-25T01:09:37.595Z,96822.13
2018-11-25T01:12:08.822Z,96822.50
2018-11-25T01:14:39.784Z,96818.53
2018-11-25T01:17:10.627Z,96822.33
2018-11-25T01:19:41.466Z,96820.91
2018-11-25T01:22:12.390Z,96819.51
2018-11-25T01:24:43.436Z,96817.06
2018-11-25T01:27:14.461Z,96810.86
2018-11-25T01:29:45.372Z,96811.76
2018-11-25T01:32:16.573Z,96806.83
2018-11-25T01:34:47.897Z,96811.02
2018-11-25T01:37:18.873Z,96815.31
2018-11-25T01:39:49.894Z,96810.58
2018-11-25T01:42:22.276Z,96804.92
2018-11-25T01:44:53.124Z,96801.46
2018-11-25T01:47:24.758Z,96797.84
2018-11-25T01:49:55.711Z,96783.31
2018-11-25T01:52:26.841Z,96797.67
2018-11-25T01:54:57.871Z,96792.58
2018-11-25T01:57:28.997Z,96791.64
2018-11-25T01:59:59.851Z,96782.01
2018-11-25T02:02:30.885Z,96780.77
2018-11-25T02:05:02.928Z,96779.36
2018-11-25T02:07:33.844Z,96776.91
2018-11-25T02:10:06.372Z,96773.66
2018-11-25T02:12:37.182Z,96772.70
2018-11-25T02:15:10.305Z,96767.27
2018-11-25T02:17:41.407Z,96772.40
2018-11-25T02:20:25.659Z,96773.23
2018-11-25T02:22:57.571Z,96777.22
2018-11-25T02:25:28.595Z,96772.47
2018-11-25T02:27:59.509Z,96776.32
2018-11-25T02:30:30.625Z,96769.05
2018-11-25T02:33:01.483Z,96762.77
2018-11-25T02:35:32.499Z,96754.74
2018-11-25T02:38:03.724Z,96751.66
2018-11-25T02:40:34.563Z,96747.03
2018-11-25T02:43:05.616Z,96740.00
2018-11-25T02:45:36.557Z,96743.84
2018-11-25T02:48:07.688Z,96736.55
2018-11-25T02:50:38.712Z,96733.73
2018-11-25T02:53:19.863Z,96740.08
2018-11-25T02:55:50.904Z,96736.02
2018-11-25T02:58:22.033Z,96736.52
2018-11-25T03:00:53.080Z,96731.81
2018-11-25T03:03:24.111Z,96737.69
2018-11-25T03:05:54.969Z,96736.02
2018-11-25T03:08:25.997Z,96741.27
2018-11-25T03:10:56.950Z,96748.39
2018-11-25T03:13:28.365Z,96738.28
2018-11-25T03:15:59.302Z,96741.64
2018-11-25T03:18:30.165Z,96746.84
2018-11-25T03:21:01.243Z,96735.17
2018-11-25T03:23:32.194Z,96739.46
2018-11-25T03:26:03.162Z,96733.19
2018-11-25T03:28:34.355Z,96736.70
2018-11-25T03:31:05.623Z,96730.77
2018-11-25T03:33:36.555Z,96727.88
2018-11-25T03:36:07.651Z,96729.55
2018-11-25T03:38:38.891Z,96726.06
2018-11-25T03:41:09.923Z,96718.05
2018-11-25T03:43:40.847Z,96714.81
2018-11-25T03:46:11.694Z,96713.53
2018-11-25T03:48:42.527Z,96710.02
2018-11-25T03:51:13.401Z,96697.23
2018-11-25T03:53:44.670Z,96704.05
2018-11-25T03:56:15.784Z,96695.25
2018-11-25T03:58:46.884Z,96692.64
2018-11-25T04:01:17.810Z,96699.02
2018-11-25T04:03:48.811Z,96693.91
2018-11-25T04:06:19.917Z,96688.44
2018-11-25T04:08:51.038Z,96691.02
2018-11-25T04:11:21.886Z,96688.50
2018-11-25T04:13:53.013Z,96680.38
2018-11-25T04:16:24.059Z,96680.50
2018-11-25T04:18:54.887Z,96672.91
2018-11-25T04:21:25.845Z,96680.06
2018-11-25T04:23:57.163Z,96682.24
2018-11-25T04:26:28.108Z,96673.38
2018-11-25T04:28:59.152Z,96672.53
2018-11-25T04:31:30.111Z,96663.61
2018-11-25T04:34:01.019Z,96664.85
2018-11-25T04:36:32.002Z,96665.64
2018-11-25T04:39:02.936Z,96665.11
2018-11-25T04:41:33.792Z,96675.28
2018-11-25T04:44:05.080Z,96670.21
2018-11-25T04:46:36.028Z,96668.19
2018-11-25T04:49:07.543Z,96665.23
2018-11-25T04:51:38.502Z,96663.11
2018-11-25T04:54:09.386Z,96656.19
2018-11-25T04:56:40.658Z,96657.48
2018-11-25T04:59:11.613Z,96656.83
2018-11-25T05:01:42.907Z,96651.70
2018-11-25T05:04:14.159Z,96650.99
2018-11-25T05:06:45.434Z,96644.22
2018-11-25T05:09:16.300Z,96649.28
2018-11-25T05:11:47.266Z,96646.80
2018-11-25T05:14:18.398Z,96644.62
2018-11-25T05:16:49.520Z,96649.72
2018-11-25T05:19:20.449Z,96650.94
2018-11-25T05:21:51.606Z,96643.62
2018-11-25T05:24:22.501Z,96647.26
2018-11-25T05:26:53.475Z,96648.56
2018-11-25T05:29:24.413Z,96646.80
2018-11-25T05:31:55.376Z,96650.24
2018-11-25T05:34:26.521Z,96647.00
2018-11-25T05:36:57.471Z,96645.72
2018-11-25T05:39:28.782Z,96641.44
2018-11-25T05:41:59.981Z,96639.37
2018-11-25T05:44:31.193Z,96635.13
2018-11-25T05:47:02.349Z,96636.83
2018-11-25T05:49:36.828Z,96638.10
2018-11-25T05:52:05.257Z,96637.67
2018-11-25T05:54:36.245Z,96626.19
2018-11-25T05:57:07.302Z,96615.98
2018-11-25T05:59:38.939Z,96618.66
2018-11-25T06:02:09.981Z,96620.25
2018-11-25T06:04:40.938Z,96617.70
2018-11-25T06:07:11.977Z,96613.44
2018-11-25T06:09:42.981Z,96615.61
2018-11-25T06:12:13.928Z,96618.55
2018-11-25T06:14:45.232Z,96616.86
2018-11-25T06:17:16.444Z,96616.89
2018-11-25T06:19:47.287Z,96624.83
2018-11-25T06:22:18.459Z,96619.47
2018-11-25T06:24:49.394Z,96617.70
2018-11-25T06:27:20.400Z,96627.09
2018-11-25T06:29:51.337Z,96617.76
2018-11-25T06:32:22.176Z,96627.00
2018-11-25T06:34:53.243Z,96613.47
2018-11-25T06:37:24.155Z,96610.52
2018-11-25T06:39:55.307Z,96613.49
2018-11-25T06:42:26.385Z,96607.67
2018-11-25T06:44:57.666Z,96607.29
2018-11-25T06:47:28.748Z,96599.69
2018-11-25T06:49:59.628Z,96603.60
2018-11-25T06:52:30.754Z,96601.95
2018-11-25T06:55:01.690Z,96601.52
2018-11-25T06:57:32.629Z,96600.40
2018-11-25T07:00:03.854Z,96599.48
2018-11-25T07:02:34.805Z,96596.08
2018-11-25T07:05:06.045Z,96593.23
2018-11-25T07:07:37.120Z,96590.66
2018-11-25T07:10:22.516Z,96597.02
2018-11-25T07:12:54.931Z,96597.45
2018-11-25T07:15:26.890Z,96602.25
2018-11-25T07:17:57.752Z,96598.04
2018-11-25T07:20:28.797Z,96599.61
2018-11-25T07:22:59.703Z,96604.28
2018-11-25T07:25:30.573Z,96600.51
2018-11-25T07:28:17.685Z,96601.57
2018-11-25T07:30:33.499Z,96597.38
2018-11-25T07:33:04.549Z,96599.51
2018-11-25T07:35:35.616Z,96596.67
2018-11-25T07:38:07.297Z,96601.37
2018-11-25T07:40:38.418Z,96601.02
2018-11-25T07:43:09.523Z,96596.91
2018-11-25T07:45:40.410Z,96597.32
2018-11-25T07:48:11.401Z,96584.17
2018-11-25T07:50:42.355Z,96589.36
2018-11-25T07:53:13.287Z,96597.20
2018-11-25T07:55:44.254Z,96592.03
2018-11-25T07:58:15.911Z,96602.83
2018-11-25T08:00:46.893Z,96593.00
2018-11-25T08:03:17.820Z,96590.86
2018-11-25T08:05:49.382Z,96589.82
2018-11-25T08:08:20.232Z,96581.90
2018-11-25T08:10:51.206Z,96588.74
2018-11-25T08:13:22.298Z,96585.55
2018-11-25T08:15:53.446Z,96574.84
2018-11-25T08:18:24.393Z,96577.95
2018-11-25T08:20:55.255Z,96569.50
2018-11-25T08:23:26.354Z,96569.50
2018-11-25T08:25:57.893Z,96567.86
2018-11-25T08:28:29.190Z,96567.47
2018-11-25T08:31:00.164Z,96568.32
2018-11-25T08:33:31.156Z,96562.44
2018-11-25T08:36:02.206Z,96550.63
2018-11-25T08:38:33.322Z,96548.50
2018-11-25T08:41:04.385Z,96545.59
2018-11-25T08:43:35.342Z,96541.84
2018-11-25T08:46:06.594Z,96538.47
2018-11-25T08:48:37.453Z,96542.76
2018-11-25T08:51:08.883Z,96536.65
2018-11-25T08:53:39.847Z,96532.16
2018-11-25T08:56:10.797Z,96525.37
2018-11-25T08:58:41.657Z,96521.25
2018-11-25T09:01:12.768Z,96518.28
2018-11-25T09:03:43.617Z,96516.22
2018-11-25T09:06:14.494Z,96517.16
2018-11-25T09:08:45.433Z,96515.09
2018-11-25T09:11:16.380Z,96520.67
2018-11-25T09:13:47.347Z,96518.21
2018-11-25T09:16:18.384Z,96514.04
2018-11-25T09:18:49.339Z,96502.08
2018-11-25T09:21:20.221Z,96503.34
2018-11-25T09:23:51.327Z,96492.63
2018-11-25T09:26:22.328Z,96489.21
2018-11-25T09:28:53.288Z,96492.55
2018-11-25T09:31:24.333Z,96495.19
2018-11-25T09:33:55.185Z,96493.67
2018-11-25T09:36:26.727Z,96491.92
2018-11-25T09:38:57.767Z,96482.50
2018-11-25T09:41:28.869Z,96485.94
2018-11-25T09:43:59.822Z,96485.13
2018-11-25T09:46:31.064Z,96464.66
2018-11-25T09:49:01.935Z,96471.52
2018-11-25T09:51:33.058Z,96462.02
2018-11-25T09:54:04.006Z,96457.95
2018-11-25T09:56:35.073Z,96452.39
2018-11-25T09:59:06.753Z,96451.21
2018-11-25T10:01:37.904Z,96447.91
2018-11-25T10:04:09.112Z,96445.75
2018-11-25T10:06:40.210Z,96439.56
2018-11-25T10:09:11.703Z,96439.53
2018-11-25T10:11:42.842Z,96437.45
2018-11-25T10:14:13.787Z,96431.89
2018-11-25T10:16:44.848Z,96433.64
2018-11-25T10:19:15.861Z,96437.86
2018-11-25T10:21:46.907Z,96431.53
2018-11-25T10:24:18.439Z,96419.08
2018-11-25T10:26:49.541Z,96422.78
2018-11-25T10:29:20.392Z,96417.99
2018-11-25T10:31:51.502Z,96415.44
2018-11-25T10:34:22.442Z,96410.41
2018-11-25T10:36:53.658Z,96407.63
2018-11-25T10:39:24.806Z,96399.23
2018-11-25T10:41:55.799Z,96401.03
2018-11-25T10:44:26.657Z,96404.47
2018-11-25T10:46:57.773Z,96406.95
2018-11-25T10:49:28.717Z,96401.98
2018-11-25T10:52:00.061Z,96396.06
2018-11-25T10:54:31.056Z,96399.43
2018-11-25T10:57:02.201Z,96394.79
2018-11-25T10:59:33.315Z,96389.30
2018-11-25T11:02:21.590Z,96380.01
2018-11-25T11:05:07.656Z,96377.09
2018-11-25T11:07:47.718Z,96374.94
2018-11-25T11:10:18.909Z,96370.28
2018-11-25T11:12:50.003Z,96363.02
2018-11-25T11:15:21.050Z,96358.27
2018-11-25T11:17:52.363Z,96354.35
2018-11-25T11:20:23.568Z,96345.39
2018-11-25T11:22:54.613Z,96342.73
2018-11-25T11:25:25.594Z,96337.59
2018-11-25T11:27:56.539Z,96332.36
2018-11-25T11:30:27.607Z,96329.68
2018-11-25T11:32:58.543Z,96320.61
2018-11-25T11:35:29.541Z,96317.13
2018-11-25T11:38:00.769Z,96307.65
2018-11-25T11:40:31.955Z,96317.02
2018-11-25T11:43:02.919Z,96310.25
2018-11-25T11:45:33.844Z,96310.95
2018-11-25T11:48:04.977Z,96313.45
2018-11-25T11:50:36.037Z,96319.36
2018-11-25T11:53:07.914Z,96301.54
2018-11-25T11:55:38.930Z,96301.11
2018-11-25T11:58:09.947Z,96295.88
2018-11-25T12:00:41.026Z,96292.03
2018-11-25T12:03:12.072Z,96297.90
2018-11-25T12:05:43.178Z,96278.38
2018-11-25T12:08:14.088Z,96280.15
2018-11-25T12:10:45.287Z,96277.77
2018-11-25T12:13:16.150Z,96276.08
2018-11-25T12:15:47.254Z,96270.23
2018-11-25T12:18:18.344Z,96268.88
2018-11-25T12:20:49.337Z,96268.88
2018-11-25T12:23:20.495Z,96272.78
2018-11-25T12:25:51.591Z,96270.62
2018-11-25T12:28:22.759Z,96264.71
2018-11-25T12:30:53.749Z,96274.00
2018-11-25T12:33:24.894Z,96268.88
2018-11-25T12:35:56.063Z,96271.05
2018-11-25T12:38:27.130Z,96254.05
2018-11-25T12:40:58.180Z,96257.55
2018-11-25T12:43:29.374Z,96255.76
2018-11-25T12:46:00.421Z,96251.91
2018-11-25T12:48:31.582Z,96246.39
2018-11-25T12:51:02.593Z,96241.27
2018-11-25T12:53:33.998Z,96231.97
2018-11-25T12:56:05.204Z,96228.59
2018-11-25T12:58:36.358Z,96239.70
2018-11-25T13:01:07.470Z,96224.86
2018-11-25T13:03:38.619Z,96226.61
2018-11-25T13:06:09.861Z,96227.88
2018-11-25T13:08:40.953Z,96218.21
2018-11-25T13:11:11.984Z,96220.45
2018-11-25T13:13:43.005Z,96213.19
2018-11-25T13:16:14.030Z,96220.87
2018-11-25T13:18:45.037Z,96207.21
2018-11-25T13:21:16.318Z,96209.36
2018-11-25T13:23:47.532Z,96207.98
2018-11-25T13:26:18.712Z,96205.05
2018-11-25T13:28:50.132Z,96205.52
2018-11-25T13:31:21.126Z,96202.59
2018-11-25T13:33:52.218Z,96202.23
2018-11-25T13:36:23.102Z,96197.06
2018-11-25T13:38:54.238Z,96201.27
2018-11-25T13:41:25.409Z,96192.39
2018-11-25T13:43:56.346Z,96191.13
2018-11-25T13:46:27.470Z,96191.62
2018-11-25T13:48:58.858Z,96189.48
2018-11-25T13:51:30.147Z,96189.47
2018-11-25T13:54:02.120Z,96177.13
2018-11-25T13:56:33.471Z,96180.97
2018-11-25T13:59:04.602Z,96179.73
2018-11-25T14:01:35.880Z,96181.47
2018-11-25T14:04:07.345Z,96172.91
2018-11-25T14:06:38.828Z,96167.34
2018-11-25T14:09:16.880Z,96167.39
2018-11-25T14:11:48.258Z,96171.22
2018-11-25T14:14:19.684Z,96154.63
2018-11-25T14:16:50.757Z,96153.30
2018-11-25T14:19:21.815Z,96154.58
2018-11-25T14:21:52.741Z,96151.12
2018-11-25T14:24:24.153Z,96167.67
2018-11-25T14:27:02.957Z,96159.50
2018-11-25T14:29:34.113Z,96159.91
2018-11-25T14:32:05.412Z,96158.63
2018-11-25T14:34:36.414Z,96167.22
2018-11-25T14:37:07.836Z,96162.10
2018-11-25T14:39:39.150Z,96154.33
2018-11-25T14:42:10.262Z,96154.70
2018-11-25T14:44:41.510Z,96155.62
2018-11-25T14:47:12.480Z,96164.94
2018-11-25T14:49:43.880Z,96167.77
2018-11-25T14:52:15.034Z,96167.72
2018-11-25T14:54:51.176Z,96171.47
2018-11-25T14:57:18.565Z,96174.88
2018-11-25T14:59:50.104Z,96171.30
2018-11-25T15:02:21.253Z,96180.20
2018-11-25T15:04:52.656Z,96182.71
2018-11-25T15:07:24.130Z,96185.72
2018-11-25T15:09:55.349Z,96191.19
2018-11-25T15:12:26.672Z,96177.48
2018-11-25T15:14:57.869Z,96185.78
2018-11-25T15:17:28.915Z,96190.78
2018-11-25T15:19:59.976Z,96183.16
2018-11-25T15:22:31.423Z,96188.63
2018-11-25T15:25:02.645Z,96185.18
2018-11-25T15:27:33.821Z,96187.56
2018-11-25T15:30:05.080Z,96184.92
2018-11-25T15:32:36.483Z,96180.70
2018-11-25T15:35:09.945Z,96179.77
2018-11-25T15:37:43.357Z,96187.44
2018-11-25T15:40:34.500Z,96184.53
2018-11-25T15:43:05.814Z,96182.86
2018-11-25T15:45:36.991Z,96185.00
2018-11-25T15:48:28.689Z,96178.22
2018-11-25T15:50:59.908Z,96184.72
2018-11-25T15:53:31.130Z,96184.67
2018-11-25T15:56:09.533Z,96181.99
2018-11-25T15:58:40.582Z,96191.80
2018-11-25T16:01:11.828Z,96191.86
2018-11-25T16:03:42.939Z,96189.99
2018-11-25T16:06:37.709Z,96190.30
2018-11-25T16:09:10.532Z,96188.92
2018-11-25T16:11:41.636Z,96197.44
2018-11-25T16:14:13.240Z,96196.50
2018-11-25T16:16:44.603Z,96193.89
2018-11-25T16:19:15.591Z,96196.17
2018-11-25T16:21:46.807Z,96193.29
2018-11-25T16:24:18.226Z,96185.19
2018-11-25T16:26:49.474Z,96186.91
2018-11-25T16:29:28.967Z,96189.84
2018-11-25T16:32:00.051Z,96185.95
2018-11-25T16:34:31.404Z,96181.25
2018-11-25T16:37:02.829Z,96179.78
2018-11-25T16:39:33.955Z,96177.27
2018-11-25T16:42:05.201Z,96177.34
2018-11-25T16:44:36.347Z,96175.99
2018-11-25T16:47:07.685Z,96167.33
2018-11-25T16:49:39.094Z,96178.02
2018-11-25T16:52:10.305Z,96172.98
2018-11-25T16:54:41.432Z,96173.86
2018-11-25T16:57:12.679Z,96166.66
2018-11-25T16:59:44.040Z,96167.61
2018-11-25T17:02:15.140Z,96170.09
2018-11-25T17:04:46.715Z,96174.74
2018-11-25T17:07:18.217Z,96170.97
2018-11-25T17:09:49.299Z,96167.20
2018-11-25T17:12:20.853Z,96163.30
2018-11-25T17:14:51.942Z,96171.77
2018-11-25T17:17:23.379Z,96165.80
2018-11-25T17:19:54.481Z,96167.53
2018-11-25T17:22:25.985Z,96165.05
2018-11-25T17:24:57.376Z,96166.73
2018-11-25T17:27:28.720Z,96163.70
2018-11-25T17:30:00.127Z,96163.78
2018-11-25T17:32:31.373Z,96156.05
2018-11-25T17:35:02.385Z,96161.02
2018-11-25T17:37:33.481Z,96158.13
2018-11-25T17:40:04.721Z,96165.80
2018-11-25T17:42:36.603Z,96161.20
2018-11-25T17:45:12.221Z,96162.03
2018-11-25T17:47:44.209Z,96155.52
2018-11-25T17:50:31.489Z,96158.92
2018-11-25T17:53:02.923Z,96155.91
2018-11-25T17:55:34.514Z,96165.93
2018-11-25T17:58:05.809Z,96162.50
2018-11-25T18:00:51.363Z,96162.51
2018-11-25T18:03:27.293Z,96164.05
2018-11-25T18:05:58.412Z,96167.20
2018-11-25T18:08:29.689Z,96158.53
2018-11-25T18:11:00.727Z,96161.81
2018-11-25T18:13:34.655Z,96169.13
2018-11-25T18:16:08.302Z,96170.89
2018-11-25T18:19:09.261Z,96168.73
2018-11-25T18:21:40.139Z,96164.02
2018-11-25T18:24:11.088Z,96166.27
2018-11-25T18:26:42.035Z,96167.08
2018-11-25T18:29:12.975Z,96167.81
2018-11-25T18:31:43.931Z,96165.78
2018-11-25T18:34:15.131Z,96174.64
2018-11-25T18:36:46.337Z,96175.06
2018-11-25T18:39:17.350Z,96174.09
2018-11-25T18:41:48.491Z,96175.18
2018-11-25T18:44:19.433Z,96171.75
2018-11-25T18:46:50.383Z,96175.59
2018-11-25T18:49:21.413Z,96176.37
2018-11-25T18:51:52.861Z,96174.69
2018-11-25T18:54:23.806Z,96170.78
2018-11-25T18:56:54.746Z,96165.45
2018-11-25T18:59:27.471Z,96161.63
2018-11-25T19:02:06.600Z,96163.95
2018-11-25T19:04:37.856Z,96160.74
2018-11-25T19:07:09.152Z,96165.77
2018-11-25T19:09:40.203Z,96162.34
2018-11-25T19:12:11.219Z,96169.94
2018-11-25T19:14:42.287Z,96165.69
2018-11-25T19:17:13.239Z,96161.95
2018-11-25T19:19:44.527Z,96161.34
2018-11-25T19:22:15.527Z,96161.24
2018-11-25T19:24:46.714Z,96151.50
2018-11-25T19:27:17.652Z,96158.69
2018-11-25T19:29:48.556Z,96160.83
2018-11-25T19:32:19.439Z,96153.22
2018-11-25T19:34:50.451Z,96148.09
2018-11-25T19:37:21.509Z,96146.76
2018-11-25T19:39:52.459Z,96143.78
2018-11-25T19:42:23.760Z,96147.31
2018-11-25T19:44:54.864Z,96133.81
2018-11-25T19:47:26.161Z,96141.95
2018-11-25T19:49:57.236Z,96143.39
2018-11-25T19:52:28.246Z,96149.84
2018-11-25T19:54:59.120Z,96151.11
2018-11-25T19:57:30.211Z,96145.99
2018-11-25T20:00:01.165Z,96154.86
2018-11-25T20:02:32.123Z,96145.92
2018-11-25T20:05:03.307Z,96153.91
2018-11-25T20:07:34.526Z,96145.86
2018-11-25T20:10:05.697Z,96151.81
2018-11-25T20:12:43.122Z,96146.19
2018-11-25T20:15:18.296Z,96140.61
2018-11-25T20:17:54.501Z,96141.78
2018-11-25T20:20:23.583Z,96136.35
2018-11-25T20:22:55.036Z,96132.97
2018-11-25T20:25:26.228Z,96122.75
2018-11-25T20:27:58.016Z,96123.28
2018-11-25T20:30:33.303Z,96121.05
2018-11-25T20:33:21.473Z,96117.66
2018-11-25T20:35:52.352Z,96118.98
2018-11-25T20:38:40.181Z,96123.16
2018-11-25T20:41:11.239Z,96124.95
2018-11-25T20:43:42.135Z,96116.09
2018-11-25T20:46:30.488Z,96119.86
2018-11-25T20:49:01.695Z,96126.73
2018-11-25T20:51:50.058Z,96119.92
2018-11-25T20:54:21.120Z,96120.75
2018-11-25T20:56:52.485Z,96126.31
2018-11-25T20:59:23.342Z,96118.67
2018-11-25T21:01:54.293Z,96120.81
2018-11-25T21:04:25.342Z,96116.59
2018-11-25T21:06:56.340Z,96118.80
2018-11-25T21:09:27.266Z,96108.53
2018-11-25T21:11:58.249Z,96115.71
2018-11-25T21:14:29.394Z,96097.47
2018-11-25T21:17:00.243Z,96101.30
2018-11-25T21:19:31.229Z,96091.55
2018-11-25T21:22:02.891Z,96094.70
2018-11-25T21:24:33.866Z,96095.45
2018-11-25T21:27:05.015Z,96102.70
2018-11-25T21:29:36.212Z,96093.28
2018-11-25T21:32:07.444Z,96098.05
2018-11-25T21:34:38.616Z,96095.69
2018-11-25T21:37:09.708Z,96094.83
2018-11-25T21:39:40.751Z,96099.94
2018-11-25T21:42:12.062Z,96103.69
2018-11-25T21:44:43.224Z,96099.88
2018-11-25T21:47:14.217Z,96094.42
2018-11-25T21:49:45.069Z,96095.17
2018-11-25T21:52:15.934Z,96095.69
2018-11-25T21:54:46.899Z,96082.94
2018-11-25T21:57:17.853Z,96084.29
2018-11-25T21:59:49.115Z,96090.67
2018-11-25T22:02:20.363Z,96091.46
2018-11-25T22:04:51.368Z,96081.20
2018-11-25T22:07:22.236Z,96085.84
2018-11-25T22:09:53.448Z,96077.43
2018-11-25T22:12:24.376Z,96077.78
2018-11-25T22:14:55.452Z,96081.26
2018-11-25T22:17:26.476Z,96079.11
2018-11-25T22:19:57.382Z,96078.23
2018-11-25T22:22:28.305Z,96076.42
2018-11-25T22:25:00.041Z,96078.59
2018-11-25T22:27:32.891Z,96074.34
2018-11-25T22:30:03.464Z,96074.41
2018-11-25T22:32:34.412Z,96072.27
2018-11-25T22:35:06.185Z,96074.00
2018-11-25T22:37:37.119Z,96063.80
2018-11-25T22:40:10.856Z,96071.05
2018-11-25T22:42:43.117Z,96074.00
2018-11-25T22:45:18.256Z,96076.58
2018-11-25T22:47:49.425Z,96070.80
2018-11-25T22:50:27.642Z,96063.55
2018-11-25T22:52:55.630Z,96061.53
2018-11-25T22:55:27.588Z,96061.81
2018-11-25T22:57:58.654Z,96063.08
2018-11-25T23:00:37.995Z,96069.12
2018-11-25T23:03:09.741Z,96068.98
2018-11-25T23:06:33.995Z,96066.77
2018-11-25T23:09:06.199Z,96068.50
2018-11-25T23:11:37.295Z,96070.13
2018-11-25T23:14:08.498Z,96075.64
2018-11-25T23:16:39.440Z,96080.75
2018-11-25T23:19:10.364Z,96083.34
2018-11-25T23:21:41.424Z,96090.67
2018-11-25T23:24:12.346Z,96086.05
2018-11-25T23:26:43.259Z,96082.95
2018-11-25T23:29:14.336Z,96088.54
2018-11-25T23:31:45.318Z,96082.70
2018-11-25T23:34:16.522Z,96083.97
2018-11-25T23:36:47.619Z,96083.97
2018-11-25T23:39:18.592Z,96071.61
2018-11-25T23:41:49.668Z,96082.23
2018-11-25T23:44:20.801Z,96075.85
2018-11-25T23:46:51.842Z,96076.31
2018-11-25T23:49:23.331Z,96071.19
2018-11-25T23:51:54.464Z,96078.11
2018-11-25T23:54:25.784Z,96075.11
2018-11-25T23:56:56.769Z,96074.58
2018-11-25T23:59:27.820Z,96072.47
